Time;durP1;ratioP1;P1;durP2;ratioP2;P2;SDS_P1;SDS_P2;PMS_P1;PMS_P2;Temp;Humidity;BMP_temperature;BMP_pressure;BME280_temperature;BME280_humidity;BME280_pressure;Samples;Min_cycle;Max_cycle;Signal;HPM_P1;HPM_P2
2020/12/15 00:00:45;;;;;;;3.80;1.70;;;10.00;99.90;;;;;;5077253;28;20226;-88
2020/12/15 00:03:11;;;;;;;3.25;1.70;;;9.90;99.90;;;;;;5082610;28;20188;-88
2020/12/15 00:05:38;;;;;;;4.07;1.92;;;10.00;99.90;;;;;;5068237;28;20207;-88
2020/12/15 00:08:04;;;;;;;4.00;2.58;;;10.00;99.90;;;;;;5063190;28;20180;-87
2020/12/15 00:10:31;;;;;;;2.90;1.60;;;10.00;99.90;;;;;;5075391;28;20610;-87
2020/12/15 00:12:57;;;;;;;3.03;1.80;;;10.10;99.90;;;;;;5080119;28;20187;-87
2020/12/15 00:15:23;;;;;;;5.53;1.90;;;10.10;99.90;;;;;;5062746;28;20196;-88
2020/12/15 00:17:49;;;;;;;2.75;1.67;;;10.00;99.90;;;;;;5060221;28;20196;-87
2020/12/15 00:20:15;;;;;;;2.20;1.60;;;10.00;99.90;;;;;;5065056;28;20187;-87
2020/12/15 00:22:43;;;;;;;4.15;2.03;;;10.00;99.90;;;;;;5061158;28;20246;-87
2020/12/15 00:25:10;;;;;;;3.58;2.03;;;10.00;99.90;;;;;;5067447;28;20203;-87
2020/12/15 00:27:36;;;;;;;3.58;2.00;;;10.00;99.90;;;;;;5077646;28;20187;-88
2020/12/15 00:30:03;;;;;;;3.13;1.77;;;10.00;99.90;;;;;;5076555;28;20542;-87
2020/12/15 00:32:29;;;;;;;3.88;2.08;;;10.00;99.90;;;;;;5078748;28;20192;-88
2020/12/15 00:34:56;;;;;;;2.92;1.95;;;9.90;99.90;;;;;;5077687;28;20183;-87
2020/12/15 00:37:22;;;;;;;3.03;2.00;;;9.90;99.90;;;;;;5074666;28;20191;-88
2020/12/15 00:39:49;;;;;;;2.85;1.70;;;9.90;99.90;;;;;;5060937;28;20200;-88
2020/12/15 00:42:15;;;;;;;3.97;2.53;;;9.90;99.90;;;;;;5065965;28;20659;-87
2020/12/15 00:44:42;;;;;;;3.08;1.63;;;9.90;99.90;;;;;;5057332;28;20215;-87
2020/12/15 00:47:11;;;;;;;2.60;1.60;;;9.80;99.90;;;;;;5058987;28;20188;-87
2020/12/15 00:49:37;;;;;;;2.72;1.70;;;9.80;99.90;;;;;;5060026;28;20187;-87
2020/12/15 00:52:03;;;;;;;3.47;1.95;;;9.80;99.90;;;;;;5056883;28;20188;-88
2020/12/15 00:54:30;;;;;;;2.58;1.77;;;9.70;99.90;;;;;;5075154;28;20183;-87
2020/12/15 00:56:57;;;;;;;5.22;1.80;;;9.70;99.90;;;;;;5084722;28;20187;-88
2020/12/15 00:59:23;;;;;;;2.70;1.77;;;9.60;99.90;;;;;;5085718;28;20188;-87
2020/12/15 01:01:49;;;;;;;3.38;2.40;;;9.50;99.90;;;;;;5074246;28;20212;-88
2020/12/15 01:04:18;;;;;;;3.40;2.20;;;9.50;99.90;;;;;;5069964;28;20303;-88
2020/12/15 01:06:49;;;;;;;2.78;1.70;;;9.40;99.90;;;;;;5081246;28;20191;-87
2020/12/15 01:09:15;;;;;;;4.85;2.30;;;9.30;99.90;;;;;;5080240;28;20215;-88
2020/12/15 01:11:41;;;;;;;2.97;1.90;;;9.20;99.90;;;;;;5087220;28;20179;-88
2020/12/15 01:14:08;;;;;;;2.65;1.85;;;9.20;99.90;;;;;;5091205;28;20197;-89
2020/12/15 01:16:35;;;;;;;4.82;2.05;;;9.10;99.90;;;;;;5075829;28;20192;-89
2020/12/15 01:19:01;;;;;;;2.92;1.42;;;9.00;99.90;;;;;;5076313;28;20188;-89
2020/12/15 01:21:28;;;;;;;3.00;1.83;;;9.00;99.90;;;;;;5091985;28;20195;-88
2020/12/15 01:23:54;;;;;;;3.95;1.80;;;8.80;99.90;;;;;;5079421;28;20208;-89
2020/12/15 01:26:21;;;;;;;4.30;2.13;;;8.70;99.90;;;;;;5072405;28;20200;-89
2020/12/15 01:28:47;;;;;;;4.03;2.13;;;8.60;99.90;;;;;;5077474;28;20180;-88
2020/12/15 01:31:23;;;;;;;3.55;2.10;;;8.50;99.90;;;;;;5082809;28;20215;-88
2020/12/15 01:33:49;;;;;;;3.85;1.85;;;8.50;99.90;;;;;;5063094;28;20196;-87
2020/12/15 01:36:15;;;;;;;3.65;2.00;;;8.40;99.90;;;;;;5059395;28;20195;-88
2020/12/15 01:38:42;;;;;;;3.35;2.08;;;8.30;99.90;;;;;;5062670;28;20184;-88
2020/12/15 01:41:08;;;;;;;4.18;2.45;;;8.20;99.90;;;;;;5069415;28;20196;-88
2020/12/15 01:43:35;;;;;;;5.22;2.47;;;8.20;99.90;;;;;;5088462;28;20187;-89
2020/12/15 01:46:01;;;;;;;2.80;2.15;;;8.20;99.90;;;;;;5086986;28;20207;-88
2020/12/15 01:48:28;;;;;;;3.65;2.00;;;8.10;99.90;;;;;;5087545;28;20198;-88
2020/12/15 01:50:54;;;;;;;4.07;2.67;;;8.10;99.90;;;;;;5087186;28;20241;-88
2020/12/15 01:53:20;;;;;;;2.92;2.20;;;8.10;99.90;;;;;;5068930;28;20188;-87
2020/12/15 01:55:47;;;;;;;6.65;2.67;;;8.00;99.90;;;;;;5066402;28;20196;-87
2020/12/15 01:58:13;;;;;;;3.55;1.55;;;8.00;99.90;;;;;;5068386;28;20188;-87
2020/12/15 02:00:39;;;;;;;3.70;1.85;;;7.90;99.90;;;;;;5072984;28;20223;-88
2020/12/15 02:03:05;;;;;;;3.45;2.95;;;7.90;99.90;;;;;;5067236;28;20188;-87
2020/12/15 02:05:32;;;;;;;5.28;3.17;;;8.00;99.90;;;;;;5058446;28;20212;-86
2020/12/15 02:07:59;;;;;;;3.47;2.05;;;7.90;99.90;;;;;;5063474;28;20188;-88
2020/12/15 02:10:26;;;;;;;4.05;2.70;;;7.90;99.90;;;;;;5062990;28;20217;-87
2020/12/15 02:12:52;;;;;;;2.92;2.15;;;7.90;99.90;;;;;;5077638;28;20183;-87
2020/12/15 02:15:19;;;;;;;3.92;2.25;;;7.90;99.90;;;;;;5070183;28;20285;-87
2020/12/15 02:17:45;;;;;;;5.10;2.65;;;7.80;99.90;;;;;;5064439;28;20195;-85
2020/12/15 02:20:12;;;;;;;5.10;2.60;;;7.80;99.90;;;;;;5077496;28;20187;-87
2020/12/15 02:22:39;;;;;;;5.03;3.00;;;7.80;99.90;;;;;;5073670;28;20191;-86
2020/12/15 02:25:06;;;;;;;4.25;3.15;;;7.80;99.90;;;;;;5058926;28;20220;-86
2020/12/15 02:27:32;;;;;;;3.63;2.63;;;7.80;99.90;;;;;;5061088;28;20176;-86
2020/12/15 02:29:58;;;;;;;3.75;2.55;;;7.80;99.90;;;;;;5083387;28;20202;-85
2020/12/15 02:32:25;;;;;;;4.15;2.40;;;7.80;99.90;;;;;;5077499;28;20195;-86
2020/12/15 02:34:55;;;;;;;3.00;2.40;;;7.80;99.90;;;;;;5065518;28;20200;-88
2020/12/15 02:37:21;;;;;;;3.78;2.58;;;7.80;99.90;;;;;;5066441;28;20195;-87
2020/12/15 02:39:49;;;;;;;3.30;2.50;;;7.80;99.90;;;;;;5058063;28;20192;-85
2020/12/15 02:42:15;;;;;;;2.72;1.88;;;7.90;99.90;;;;;;5064579;28;20180;-87
2020/12/15 02:44:41;;;;;;;7.32;3.40;;;7.90;99.90;;;;;;5070094;28;20211;-86
2020/12/15 02:47:07;;;;;;;3.50;2.40;;;7.90;99.90;;;;;;5069015;28;20215;-86
2020/12/15 02:49:34;;;;;;;4.55;2.20;;;7.90;99.90;;;;;;5057061;28;20187;-86
2020/12/15 02:52:00;;;;;;;3.90;2.78;;;7.90;99.90;;;;;;5062405;28;20212;-86
2020/12/15 02:54:26;;;;;;;4.63;3.08;;;7.90;99.90;;;;;;5076914;28;20192;-86
2020/12/15 02:56:55;;;;;;;4.40;2.92;;;7.90;99.90;;;;;;5071287;28;20191;-86
2020/12/15 02:59:21;;;;;;;5.15;2.53;;;7.90;99.90;;;;;;5076407;28;20191;-87
2020/12/15 03:01:51;;;;;;;3.30;2.55;;;7.90;99.90;;;;;;5066009;28;20223;-86
2020/12/15 03:04:18;;;;;;;3.75;2.88;;;7.90;99.90;;;;;;5054938;28;20572;-87
2020/12/15 03:06:44;;;;;;;6.50;3.53;;;7.90;99.90;;;;;;5056549;28;20189;-87
2020/12/15 03:09:11;;;;;;;5.15;3.05;;;7.90;99.90;;;;;;5071440;28;20274;-87
2020/12/15 03:11:37;;;;;;;5.25;4.10;;;7.90;99.90;;;;;;5056178;28;20184;-87
2020/12/15 03:14:05;;;;;;;5.93;3.50;;;7.90;99.90;;;;;;5059244;28;20180;-87
2020/12/15 03:16:31;;;;;;;6.20;3.00;;;7.90;99.90;;;;;;5076026;28;20188;-87
2020/12/15 03:18:58;;;;;;;3.38;2.45;;;7.90;99.90;;;;;;5063847;28;20663;-88
2020/12/15 03:21:24;;;;;;;4.40;3.00;;;7.90;99.90;;;;;;5061969;28;20198;-87
2020/12/15 03:23:51;;;;;;;4.40;3.30;;;7.90;99.90;;;;;;5075234;28;20701;-87
2020/12/15 03:26:18;;;;;;;4.65;3.00;;;7.90;99.90;;;;;;5075965;28;20192;-87
2020/12/15 03:28:44;;;;;;;3.67;2.97;;;8.00;99.90;;;;;;5077662;28;20199;-86
2020/12/15 03:31:13;;;;;;;5.50;3.42;;;7.90;99.90;;;;;;5059302;28;20184;-86
2020/12/15 03:33:39;;;;;;;5.78;3.70;;;8.00;99.90;;;;;;5075235;28;20191;-88
2020/12/15 03:36:05;;;;;;;3.88;2.83;;;8.00;99.90;;;;;;5073594;28;20279;-88
2020/12/15 03:38:32;;;;;;;4.45;3.70;;;8.00;99.90;;;;;;5066940;28;20179;-87
2020/12/15 03:40:58;;;;;;;4.40;3.55;;;8.00;99.90;;;;;;5076649;28;20188;-87
2020/12/15 03:43:24;;;;;;;5.78;4.30;;;8.00;99.90;;;;;;5057935;28;20192;-88
2020/12/15 03:45:50;;;;;;;5.72;3.80;;;8.00;99.90;;;;;;5079580;28;20203;-87
2020/12/15 03:48:18;;;;;;;5.18;3.47;;;8.00;99.90;;;;;;5091608;28;20184;-88
2020/12/15 03:50:44;;;;;;;4.60;3.58;;;8.00;99.90;;;;;;5060598;28;20188;-89
2020/12/15 03:53:10;;;;;;;5.35;3.65;;;8.00;99.90;;;;;;5055727;28;20188;-88
2020/12/15 03:55:36;;;;;;;7.47;4.93;;;8.00;99.90;;;;;;5068540;28;20188;-88
2020/12/15 03:58:03;;;;;;;5.35;3.63;;;8.00;99.90;;;;;;5055870;28;20196;-88
2020/12/15 04:00:29;;;;;;;4.95;3.78;;;8.00;99.90;;;;;;5055906;28;20203;-88
2020/12/15 04:02:56;;;;;;;4.90;3.97;;;8.00;99.90;;;;;;5062685;28;20192;-88
2020/12/15 04:05:23;;;;;;;5.47;4.22;;;8.00;99.90;;;;;;5068198;28;20218;-88
2020/12/15 04:07:49;;;;;;;6.00;4.00;;;8.00;99.90;;;;;;5077765;28;20188;-88
2020/12/15 04:10:17;;;;;;;6.32;4.25;;;8.00;99.90;;;;;;5076101;28;20195;-88
2020/12/15 04:12:44;;;;;;;5.32;3.90;;;8.00;99.90;;;;;;5092526;28;20250;-87
2020/12/15 04:15:10;;;;;;;7.13;4.88;;;8.00;99.90;;;;;;5082273;28;20196;-89
2020/12/15 04:17:37;;;;;;;6.05;4.40;;;7.90;99.90;;;;;;5078781;28;20195;-88
2020/12/15 04:20:04;;;;;;;6.03;4.32;;;7.90;99.90;;;;;;5073415;28;20187;-88
2020/12/15 04:22:33;;;;;;;5.18;3.45;;;7.90;99.90;;;;;;5076655;28;20218;-88
2020/12/15 04:25:00;;;;;;;5.95;4.20;;;7.90;99.90;;;;;;5074219;28;20219;-86
2020/12/15 04:27:26;;;;;;;5.57;3.35;;;8.00;99.90;;;;;;5075198;28;20203;-87
2020/12/15 04:29:53;;;;;;;5.53;3.75;;;8.00;99.90;;;;;;5060711;28;20199;-87
2020/12/15 04:32:19;;;;;;;7.50;4.20;;;8.00;99.90;;;;;;5055114;28;20246;-88
2020/12/15 04:34:46;;;;;;;7.10;4.65;;;8.00;99.90;;;;;;5066891;28;20195;-87
2020/12/15 04:37:12;;;;;;;5.07;4.28;;;8.00;99.90;;;;;;5065927;28;20191;-88
2020/12/15 04:39:39;;;;;;;5.80;4.10;;;8.00;99.90;;;;;;5064808;28;20199;-88
2020/12/15 04:42:06;;;;;;;7.13;5.35;;;8.00;99.90;;;;;;5060341;28;20179;-87
2020/12/15 04:44:34;;;;;;;6.47;4.55;;;8.00;99.90;;;;;;5073491;28;20203;-88
2020/12/15 04:47:11;;;;;;;7.32;5.35;;;8.10;99.90;;;;;;5069800;28;20192;-87
2020/12/15 04:49:47;;;;;;;7.15;5.47;;;8.00;99.90;;;;;;5063291;28;20211;-87
2020/12/15 04:52:20;;;;;;;6.00;4.28;;;8.10;99.90;;;;;;5066453;28;20191;-88
2020/12/15 04:54:49;;;;;;;5.50;4.00;;;8.10;99.90;;;;;;5063767;28;20199;-87
2020/12/15 04:57:20;;;;;;;7.63;5.72;;;8.10;99.90;;;;;;5067469;28;20195;-87
2020/12/15 04:59:48;;;;;;;5.22;4.07;;;8.10;99.90;;;;;;5055817;28;20191;-88
2020/12/15 05:02:15;;;;;;;7.03;5.68;;;8.10;99.90;;;;;;5056660;28;20724;-87
2020/12/15 05:04:42;;;;;;;6.30;5.35;;;8.10;99.90;;;;;;5061981;28;20215;-87
2020/12/15 05:07:12;;;;;;;5.10;4.47;;;8.10;99.90;;;;;;5063744;28;20214;-86
2020/12/15 05:09:38;;;;;;;6.13;4.70;;;8.20;99.90;;;;;;5074792;28;20230;-86
2020/12/15 05:12:06;;;;;;;6.13;4.50;;;8.10;99.90;;;;;;5058478;28;20195;-87
2020/12/15 05:14:33;;;;;;;6.18;4.35;;;8.20;99.90;;;;;;5057832;28;20566;-87
2020/12/15 05:16:59;;;;;;;5.57;3.90;;;8.20;99.90;;;;;;5057958;28;20188;-88
2020/12/15 05:19:26;;;;;;;5.35;4.70;;;8.20;99.90;;;;;;5074665;28;20191;-87
2020/12/15 05:21:53;;;;;;;7.45;4.25;;;8.20;99.90;;;;;;5055243;28;20218;-87
2020/12/15 05:24:22;;;;;;;5.60;4.25;;;8.20;99.90;;;;;;5076257;28;20203;-87
2020/12/15 05:26:49;;;;;;;6.15;3.80;;;8.20;99.90;;;;;;5078226;28;20584;-86
2020/12/15 05:29:18;;;;;;;7.70;4.85;;;8.30;99.90;;;;;;5057132;28;20184;-88
2020/12/15 05:31:44;;;;;;;6.00;4.60;;;8.30;99.90;;;;;;5080256;28;20183;-86
2020/12/15 05:34:12;;;;;;;6.78;4.80;;;8.30;99.90;;;;;;5060253;28;20207;-88
2020/12/15 05:36:49;;;;;;;5.60;4.32;;;8.40;99.90;;;;;;5056615;28;20208;-88
2020/12/15 05:39:15;;;;;;;10.55;4.40;;;8.40;99.90;;;;;;5055705;28;20184;-87
2020/12/15 05:41:42;;;;;;;6.80;5.18;;;8.40;99.90;;;;;;5069517;28;20643;-87
2020/12/15 05:44:10;;;;;;;8.80;6.65;;;8.40;99.90;;;;;;5074791;28;20208;-88
2020/12/15 05:46:46;;;;;;;4.80;4.18;;;8.40;99.90;;;;;;5074237;28;20241;-87
2020/12/15 05:49:13;;;;;;;6.13;4.43;;;8.40;99.90;;;;;;5059631;28;20287;-87
2020/12/15 05:51:41;;;;;;;6.43;5.32;;;8.40;99.90;;;;;;5054841;28;20192;-87
2020/12/15 05:54:08;;;;;;;8.30;5.32;;;8.30;99.90;;;;;;5055225;28;20192;-88
2020/12/15 05:56:37;;;;;;;6.75;4.43;;;8.30;99.90;;;;;;5063438;28;20184;-88
2020/12/15 05:59:18;;;;;;;5.32;4.63;;;8.40;99.90;;;;;;5067831;28;20605;-87
2020/12/15 06:01:51;;;;;;;4.80;4.25;;;8.40;99.90;;;;;;5060034;28;20216;-89
2020/12/15 06:04:18;;;;;;;7.82;5.30;;;8.30;99.90;;;;;;5062534;28;20196;-89
2020/12/15 06:06:45;;;;;;;6.00;4.40;;;8.30;99.90;;;;;;5067508;28;20186;-89
2020/12/15 06:09:13;;;;;;;7.93;5.50;;;8.30;99.90;;;;;;5062942;28;20270;-89
2020/12/15 06:11:41;;;;;;;7.20;5.10;;;8.40;99.90;;;;;;5069825;28;20188;-89
2020/12/15 06:14:09;;;;;;;8.80;5.05;;;8.40;99.90;;;;;;5055471;28;20238;-89
2020/12/15 06:16:36;;;;;;;6.88;5.40;;;8.40;99.90;;;;;;5066159;28;20187;-87
2020/12/15 06:19:06;;;;;;;7.13;6.00;;;8.40;99.90;;;;;;5068201;28;20185;-87
2020/12/15 06:21:33;;;;;;;7.15;5.90;;;8.40;99.90;;;;;;5054021;28;20559;-86
2020/12/15 06:24:01;;;;;;;6.35;5.75;;;8.40;99.90;;;;;;5069675;28;20643;-87
2020/12/15 06:26:28;;;;;;;7.43;5.80;;;8.40;99.90;;;;;;5074687;28;20190;-87
2020/12/15 06:28:59;;;;;;;9.63;5.80;;;8.40;99.90;;;;;;5073891;28;20251;-87
2020/12/15 06:31:25;;;;;;;7.30;5.65;;;8.40;99.90;;;;;;5073150;28;20638;-87
2020/12/15 06:33:59;;;;;;;8.60;6.05;;;8.40;99.90;;;;;;5075009;28;20512;-87
2020/12/15 06:36:32;;;;;;;7.50;5.43;;;8.40;99.90;;;;;;5061252;28;20196;-86
2020/12/15 06:39:00;;;;;;;8.02;7.03;;;8.50;99.90;;;;;;5073098;28;20184;-86
2020/12/15 06:41:28;;;;;;;6.95;6.10;;;8.40;99.90;;;;;;5069421;28;20183;-87
2020/12/15 06:44:05;;;;;;;8.85;5.72;;;8.50;99.90;;;;;;5075562;28;20188;-86
2020/12/15 06:46:32;;;;;;;7.88;5.22;;;8.50;99.90;;;;;;5057468;28;20203;-86
2020/12/15 06:48:58;;;;;;;7.35;5.80;;;8.50;99.90;;;;;;5070732;28;20194;-87
2020/12/15 06:51:29;;;;;;;6.80;5.85;;;8.50;99.90;;;;;;5073313;28;20180;-86
2020/12/15 06:54:04;;;;;;;6.93;5.82;;;8.60;99.90;;;;;;5057321;28;20223;-87
2020/12/15 06:56:30;;;;;;;9.02;5.20;;;8.60;99.90;;;;;;5071688;28;20382;-86
2020/12/15 06:59:01;;;;;;;6.10;5.35;;;8.50;99.90;;;;;;5059166;28;20640;-86
2020/12/15 07:01:28;;;;;;;6.25;5.53;;;8.50;99.90;;;;;;5065997;28;20219;-87
2020/12/15 07:03:56;;;;;;;7.20;5.50;;;8.50;99.90;;;;;;5076356;28;20187;-87
2020/12/15 07:06:22;;;;;;;7.20;5.25;;;8.60;99.90;;;;;;5068174;28;20290;-87
2020/12/15 07:08:58;;;;;;;6.55;5.57;;;8.60;99.90;;;;;;5060873;28;20194;-87
2020/12/15 07:11:25;;;;;;;7.10;6.38;;;8.50;99.90;;;;;;5056857;28;20192;-87
2020/12/15 07:13:56;;;;;;;7.80;6.40;;;8.50;99.90;;;;;;5061248;28;20200;-85
2020/12/15 07:16:23;;;;;;;7.07;6.32;;;8.60;99.90;;;;;;5075627;28;20183;-86
2020/12/15 07:18:51;;;;;;;7.18;5.57;;;8.50;99.90;;;;;;5085276;28;20184;-86
2020/12/15 07:21:18;;;;;;;11.60;6.90;;;8.50;99.90;;;;;;5083707;28;20188;-86
2020/12/15 07:23:46;;;;;;;8.73;6.75;;;8.50;99.90;;;;;;5071714;28;20212;-86
2020/12/15 07:26:14;;;;;;;7.95;6.22;;;8.50;99.90;;;;;;5072807;28;20212;-86
2020/12/15 07:28:42;;;;;;;7.82;6.70;;;8.50;99.90;;;;;;5084253;28;20187;-85
2020/12/15 07:31:09;;;;;;;9.52;7.60;;;8.50;99.90;;;;;;5078054;28;20180;-87
2020/12/15 07:33:35;;;;;;;10.25;7.20;;;8.50;99.90;;;;;;5082207;28;20184;-84
2020/12/15 07:36:11;;;;;;;11.88;7.72;;;8.50;99.90;;;;;;5070105;28;20184;-85
2020/12/15 07:38:38;;;;;;;8.75;7.68;;;8.50;99.90;;;;;;5064649;28;20183;-86
2020/12/15 07:41:13;;;;;;;8.13;7.22;;;8.50;99.90;;;;;;5072021;28;20175;-86
2020/12/15 07:43:40;;;;;;;8.48;7.05;;;8.50;99.90;;;;;;5084159;28;20195;-87
2020/12/15 07:46:15;;;;;;;9.93;7.90;;;8.50;99.90;;;;;;5076333;28;20251;-86
2020/12/15 07:48:42;;;;;;;9.25;7.53;;;8.40;99.90;;;;;;5063701;28;20183;-87
2020/12/15 07:51:09;;;;;;;9.32;7.95;;;8.40;99.90;;;;;;5079847;28;20191;-86
2020/12/15 07:53:35;;;;;;;10.68;8.48;;;8.50;99.90;;;;;;5077849;28;20203;-86
2020/12/15 07:56:03;;;;;;;11.38;8.82;;;8.50;99.90;;;;;;5079802;28;20269;-87
2020/12/15 07:58:32;;;;;;;11.65;8.93;;;8.50;99.90;;;;;;5080150;28;20192;-87
2020/12/15 08:00:58;;;;;;;10.18;8.98;;;8.50;99.90;;;;;;5063502;28;20222;-86
2020/12/15 08:03:24;;;;;;;15.88;8.30;;;8.50;99.90;;;;;;5062990;28;20520;-87
2020/12/15 08:05:51;;;;;;;9.02;7.75;;;8.50;99.90;;;;;;5070483;28;20212;-85
2020/12/15 08:08:19;;;;;;;8.57;7.72;;;8.50;99.90;;;;;;5069910;28;20262;-87
2020/12/15 08:10:45;;;;;;;9.68;8.27;;;8.60;99.90;;;;;;5068799;28;20207;-86
2020/12/15 08:13:12;;;;;;;8.80;6.80;;;8.60;99.90;;;;;;5071091;28;20192;-85
2020/12/15 08:15:41;;;;;;;9.25;7.68;;;8.60;99.90;;;;;;5068225;28;20180;-86
2020/12/15 08:18:08;;;;;;;7.53;6.55;;;8.50;99.90;;;;;;5078379;28;20255;-87
2020/12/15 08:20:36;;;;;;;9.38;8.38;;;8.60;99.90;;;;;;5078129;28;20643;-85
2020/12/15 08:23:07;;;;;;;9.68;8.48;;;8.60;99.90;;;;;;5077095;28;20542;-85
2020/12/15 08:25:34;;;;;;;9.75;8.45;;;8.70;99.90;;;;;;5076303;28;20211;-86
2020/12/15 08:28:08;;;;;;;12.60;9.40;;;8.70;99.90;;;;;;5077655;28;20195;-85
2020/12/15 08:30:34;;;;;;;7.55;6.60;;;8.70;99.90;;;;;;5077150;28;20190;-87
2020/12/15 08:33:01;;;;;;;8.10;7.07;;;8.70;99.90;;;;;;5077117;28;20649;-85
2020/12/15 08:35:28;;;;;;;7.72;6.22;;;8.70;99.90;;;;;;5076072;28;20187;-85
2020/12/15 08:38:00;;;;;;;8.77;7.32;;;8.70;99.90;;;;;;5077220;28;20199;-85
2020/12/15 08:40:28;;;;;;;7.45;6.65;;;8.70;99.90;;;;;;5076628;28;20213;-87
2020/12/15 08:42:58;;;;;;;7.45;6.63;;;8.70;99.90;;;;;;5064602;28;20211;-86
2020/12/15 08:45:26;;;;;;;8.60;6.85;;;8.80;99.90;;;;;;5064815;28;20214;-86
2020/12/15 08:47:54;;;;;;;7.68;6.15;;;8.80;99.90;;;;;;5064386;28;20225;-85
2020/12/15 08:50:21;;;;;;;7.55;6.35;;;8.80;99.90;;;;;;5063600;28;20239;-85
2020/12/15 08:52:48;;;;;;;6.78;5.93;;;8.80;99.90;;;;;;5064753;28;20191;-85
2020/12/15 08:55:14;;;;;;;6.68;5.93;;;8.80;99.90;;;;;;5058571;28;20192;-86
2020/12/15 08:57:41;;;;;;;8.10;5.72;;;8.90;99.90;;;;;;5055684;28;20268;-86
2020/12/15 09:00:12;;;;;;;6.80;6.10;;;8.90;99.90;;;;;;5055015;28;20195;-85
2020/12/15 09:02:38;;;;;;;6.63;5.93;;;8.90;99.90;;;;;;5054846;28;20238;-85
2020/12/15 09:05:06;;;;;;;6.40;5.07;;;8.90;99.90;;;;;;5055731;28;20219;-84
2020/12/15 09:07:33;;;;;;;7.47;5.10;;;9.00;99.90;;;;;;5055403;28;20199;-85
2020/12/15 09:10:14;;;;;;;7.18;6.28;;;9.00;99.90;;;;;;5064403;28;20187;-85
2020/12/15 09:12:43;;;;;;;7.18;5.75;;;9.00;99.90;;;;;;5075150;28;20187;-86
2020/12/15 09:15:10;;;;;;;6.20;5.55;;;9.00;99.90;;;;;;5079849;28;20191;-85
2020/12/15 09:17:36;;;;;;;5.25;4.40;;;9.00;99.90;;;;;;5078029;28;20651;-86
2020/12/15 09:20:04;;;;;;;5.80;5.07;;;9.00;99.90;;;;;;5079894;28;20194;-87
2020/12/15 09:22:30;;;;;;;5.20;4.70;;;9.00;99.90;;;;;;5079287;28;20209;-87
2020/12/15 09:25:01;;;;;;;7.47;5.38;;;9.00;99.90;;;;;;5079618;28;20211;-86
2020/12/15 09:27:27;;;;;;;5.80;3.92;;;9.00;99.90;;;;;;5079441;28;20200;-85
2020/12/15 09:29:54;;;;;;;6.38;5.55;;;9.00;99.90;;;;;;5076610;28;20643;-86
2020/12/15 09:32:20;;;;;;;6.20;5.47;;;9.00;99.90;;;;;;5074468;28;20619;-86
2020/12/15 09:34:47;;;;;;;6.75;5.45;;;9.00;99.90;;;;;;5074238;28;20277;-86
2020/12/15 09:37:13;;;;;;;6.05;4.63;;;9.00;99.90;;;;;;5074092;28;20191;-86
2020/12/15 09:39:40;;;;;;;6.50;5.40;;;9.00;99.90;;;;;;5064736;28;20644;-86
2020/12/15 09:42:07;;;;;;;7.25;5.68;;;9.00;99.90;;;;;;5054343;28;20192;-87
2020/12/15 09:44:33;;;;;;;6.45;5.07;;;9.10;99.90;;;;;;5055250;28;20191;-85
2020/12/15 09:47:03;;;;;;;5.53;4.65;;;9.10;99.90;;;;;;5055702;28;20207;-87
2020/12/15 09:49:29;;;;;;;7.45;5.53;;;9.20;99.90;;;;;;5054691;28;20935;-86
2020/12/15 09:51:56;;;;;;;6.88;5.15;;;9.10;99.90;;;;;;5054371;28;20242;-87
2020/12/15 09:54:22;;;;;;;6.07;4.78;;;9.20;99.90;;;;;;5055180;28;20184;-86
2020/12/15 09:56:48;;;;;;;6.88;5.00;;;9.20;99.90;;;;;;5053631;28;20196;-86
2020/12/15 09:59:15;;;;;;;6.40;5.45;;;9.20;99.90;;;;;;5053362;28;20185;-87
2020/12/15 10:01:42;;;;;;;5.88;5.28;;;9.10;99.90;;;;;;5056861;28;20570;-86
2020/12/15 10:04:08;;;;;;;8.90;6.47;;;9.10;99.90;;;;;;5058108;28;20199;-86
2020/12/15 10:06:36;;;;;;;7.05;5.22;;;9.10;99.90;;;;;;5056977;28;20219;-87
2020/12/15 10:09:02;;;;;;;6.15;5.18;;;9.10;99.90;;;;;;5060889;28;20257;-87
2020/12/15 10:11:29;;;;;;;5.75;5.15;;;9.10;99.90;;;;;;5077232;28;20195;-87
2020/12/15 10:13:55;;;;;;;7.65;5.80;;;9.20;99.90;;;;;;5076723;28;20191;-87
2020/12/15 10:16:22;;;;;;;7.00;5.88;;;9.10;99.90;;;;;;5076901;28;20206;-87
2020/12/15 10:18:48;;;;;;;7.22;6.45;;;9.20;99.90;;;;;;5076574;28;20191;-86
2020/12/15 10:21:18;;;;;;;5.85;5.22;;;9.20;99.90;;;;;;5076787;28;20187;-86
2020/12/15 10:23:47;;;;;;;6.40;5.18;;;9.20;99.90;;;;;;5077148;28;20200;-86
2020/12/15 10:26:13;;;;;;;6.32;4.85;;;9.20;99.90;;;;;;5076554;28;20564;-87
2020/12/15 10:28:41;;;;;;;6.78;5.47;;;9.30;99.90;;;;;;5076483;28;20195;-86
2020/12/15 10:31:09;;;;;;;8.13;5.95;;;9.30;99.90;;;;;;5076287;28;20245;-86
2020/12/15 10:33:36;;;;;;;6.32;5.32;;;9.30;99.90;;;;;;5076262;28;20195;-86
2020/12/15 10:36:03;;;;;;;5.20;4.53;;;9.30;99.90;;;;;;5076609;28;20575;-86
2020/12/15 10:38:29;;;;;;;8.32;6.05;;;9.30;99.90;;;;;;5075887;28;20283;-86
2020/12/15 10:40:57;;;;;;;8.13;5.50;;;9.30;99.90;;;;;;5076346;28;20183;-86
2020/12/15 10:43:23;;;;;;;6.18;5.10;;;9.30;99.90;;;;;;5075150;28;20399;-86
2020/12/15 10:45:49;;;;;;;7.30;6.28;;;9.30;99.90;;;;;;5060560;28;20242;-86
2020/12/15 10:48:16;;;;;;;7.63;5.93;;;9.30;99.90;;;;;;5075705;28;20214;-87
2020/12/15 10:50:43;;;;;;;6.72;5.38;;;9.40;99.90;;;;;;5061219;28;20204;-86
2020/12/15 10:53:10;;;;;;;8.57;5.43;;;9.30;99.90;;;;;;5056297;28;20267;-85
2020/12/15 10:55:36;;;;;;;7.18;6.45;;;9.30;99.90;;;;;;5067449;28;20268;-87
2020/12/15 10:58:03;;;;;;;6.95;6.25;;;9.40;99.90;;;;;;5061151;28;20180;-86
2020/12/15 11:00:29;;;;;;;7.72;5.75;;;9.40;99.90;;;;;;5069303;28;20191;-85
2020/12/15 11:02:55;;;;;;;7.25;5.97;;;9.40;99.90;;;;;;5060445;28;20207;-85
2020/12/15 11:05:22;;;;;;;9.43;6.65;;;9.40;99.90;;;;;;5066122;28;20540;-84
2020/12/15 11:07:49;;;;;;;5.90;5.15;;;9.40;99.90;;;;;;5075210;28;20187;-86
2020/12/15 11:10:15;;;;;;;7.32;6.70;;;9.50;99.90;;;;;;5067220;28;20632;-86
2020/12/15 11:12:41;;;;;;;7.32;5.80;;;9.50;99.90;;;;;;5057119;28;20675;-86
2020/12/15 11:15:08;;;;;;;6.15;5.20;;;9.50;99.90;;;;;;5056473;28;20238;-86
2020/12/15 11:17:34;;;;;;;8.57;5.70;;;9.50;99.90;;;;;;5057003;28;20196;-86
2020/12/15 11:20:00;;;;;;;7.53;5.07;;;9.60;99.90;;;;;;5057668;28;20184;-86
2020/12/15 11:22:26;;;;;;;7.28;6.25;;;9.50;99.90;;;;;;5056585;28;20199;-84
2020/12/15 11:24:53;;;;;;;7.50;6.13;;;9.60;99.90;;;;;;5061589;28;20742;-85
2020/12/15 11:27:20;;;;;;;6.38;5.20;;;9.60;99.90;;;;;;5069300;28;20552;-85
2020/12/15 11:29:46;;;;;;;6.00;5.07;;;9.60;99.90;;;;;;5054715;28;20204;-85
2020/12/15 11:32:12;;;;;;;7.53;6.82;;;9.60;99.90;;;;;;5073992;28;20666;-86
2020/12/15 11:34:38;;;;;;;33.95;6.38;;;9.60;99.90;;;;;;5063456;28;20191;-84
2020/12/15 11:37:09;;;;;;;7.22;5.82;;;9.60;99.90;;;;;;5062347;28;20191;-85
2020/12/15 11:39:35;;;;;;;6.78;5.35;;;9.60;99.90;;;;;;5062720;28;20184;-85
2020/12/15 11:42:06;;;;;;;7.85;5.97;;;9.60;99.90;;;;;;5066202;28;20253;-84
2020/12/15 11:44:33;;;;;;;7.78;5.72;;;9.60;99.90;;;;;;5055232;28;20177;-86
2020/12/15 11:46:59;;;;;;;8.15;6.05;;;9.60;99.90;;;;;;5055584;28;20592;-85
2020/12/15 11:49:25;;;;;;;9.23;7.32;;;9.70;99.90;;;;;;5060420;28;20188;-85
2020/12/15 11:51:52;;;;;;;7.13;5.32;;;9.70;99.90;;;;;;5064830;28;20190;-86
2020/12/15 11:54:18;;;;;;;8.45;6.10;;;9.70;99.90;;;;;;5073718;28;20191;-85
2020/12/15 11:56:46;;;;;;;6.60;5.60;;;9.60;99.90;;;;;;5055048;28;20275;-85
2020/12/15 11:59:14;;;;;;;9.45;6.20;;;9.60;99.90;;;;;;5055208;28;20200;-85
2020/12/15 12:01:40;;;;;;;6.25;5.15;;;9.60;99.90;;;;;;5067013;28;20586;-85
2020/12/15 12:04:06;;;;;;;9.15;6.70;;;9.60;99.90;;;;;;5066501;28;20184;-85
2020/12/15 12:06:33;;;;;;;6.97;5.50;;;9.60;99.90;;;;;;5055467;28;20265;-86
2020/12/15 12:08:59;;;;;;;8.13;6.40;;;9.60;99.90;;;;;;5073641;28;20187;-86
2020/12/15 12:11:26;;;;;;;7.30;6.07;;;9.60;99.90;;;;;;5062970;28;20185;-86
2020/12/15 12:13:52;;;;;;;6.20;5.30;;;9.60;99.90;;;;;;5055815;28;20192;-86
2020/12/15 12:16:19;;;;;;;5.80;5.10;;;9.60;99.90;;;;;;5065932;28;20184;-86
2020/12/15 12:18:46;;;;;;;7.20;5.53;;;9.60;99.90;;;;;;5074237;28;20195;-85
2020/12/15 12:21:12;;;;;;;8.15;5.85;;;9.50;99.90;;;;;;5065843;28;20187;-86
2020/12/15 12:23:39;;;;;;;7.32;6.32;;;9.50;99.90;;;;;;5063883;28;20670;-85
2020/12/15 12:26:05;;;;;;;9.00;6.50;;;9.50;99.90;;;;;;5054064;28;20630;-85
2020/12/15 12:28:32;;;;;;;8.70;6.90;;;9.50;99.90;;;;;;5056860;28;20226;-86
2020/12/15 12:30:58;;;;;;;8.90;6.25;;;9.50;99.90;;;;;;5068683;28;20195;-87
2020/12/15 12:33:25;;;;;;;8.10;6.63;;;9.50;99.90;;;;;;5054847;28;20192;-85
2020/12/15 12:35:53;;;;;;;10.05;6.97;;;9.50;99.90;;;;;;5057084;28;20702;-84
2020/12/15 12:38:20;;;;;;;8.70;6.50;;;9.50;99.90;;;;;;5071523;28;20180;-85
2020/12/15 12:40:47;;;;;;;8.45;6.95;;;9.50;99.90;;;;;;5076308;28;20191;-84
2020/12/15 12:43:14;;;;;;;8.27;7.07;;;9.40;99.90;;;;;;5077315;28;20237;-85
2020/12/15 12:45:40;;;;;;;7.40;6.65;;;9.40;99.90;;;;;;5071684;28;20200;-86
2020/12/15 12:48:07;;;;;;;7.40;6.60;;;9.40;99.90;;;;;;5067236;28;20214;-83
2020/12/15 12:50:35;;;;;;;9.77;7.57;;;9.40;99.90;;;;;;5059301;28;20211;-85
2020/12/15 12:53:01;;;;;;;10.75;8.07;;;9.40;99.90;;;;;;5060893;28;20175;-85
2020/12/15 12:55:27;;;;;;;8.38;7.00;;;9.40;99.90;;;;;;5062907;28;20552;-85